createdAt,value
2022-09-12T00:01:22.605Z,98325.13
2022-09-12T00:03:53.374Z,98319.31
2022-09-12T00:06:23.933Z,98317.69
2022-09-12T00:09:02.200Z,98314.31
2022-09-12T00:11:29.644Z,98310.66
2022-09-12T00:14:01.505Z,98298.06
2022-09-12T00:16:31.987Z,98295.06
2022-09-12T00:18:59.473Z,98285.94
2022-09-12T00:21:26.626Z,98284.16
2022-09-12T00:23:54.382Z,98283.97
2022-09-12T00:26:22.157Z,98274.84
2022-09-12T00:28:50.107Z,98267.88
2022-09-12T00:31:24.406Z,98255.91
2022-09-12T00:33:52.263Z,98255.16
2022-09-12T00:36:22.039Z,98245.44
2022-09-12T00:38:49.801Z,98249.34
2022-09-12T00:41:38.910Z,98246.16
2022-09-12T00:44:24.628Z,98240.06
2022-09-12T00:47:02.401Z,98235.53
2022-09-12T00:49:35.013Z,98241.53
2022-09-12T00:52:20.829Z,98229.16
2022-09-12T00:54:57.187Z,98232.34
2022-09-12T00:57:28.469Z,98223.88
2022-09-12T01:00:14.109Z,98222.22
2022-09-12T01:02:45.954Z,98217.16
2022-09-12T01:05:14.257Z,98217.16
2022-09-12T01:07:42.048Z,98215.72
2022-09-12T01:10:10.175Z,98225.78
2022-09-12T01:12:40.463Z,98220.41
2022-09-12T01:15:08.742Z,98219.34
2022-09-12T01:18:00.614Z,98225.44
2022-09-12T01:20:45.883Z,98228.31
2022-09-12T01:23:13.000Z,98229.06
2022-09-12T01:26:01.350Z,98228.31
2022-09-12T01:28:40.255Z,98234.75
2022-09-12T01:31:57.156Z,98243.72
2022-09-12T01:34:37.609Z,98239.63
2022-09-12T01:37:22.946Z,98241.38
2022-09-12T01:39:50.480Z,98243.88
2022-09-12T01:42:55.016Z,98237.03
2022-09-12T01:45:28.641Z,98230.00
2022-09-12T01:48:11.494Z,98229.28
2022-09-12T01:50:47.967Z,98224.13
2022-09-12T01:53:26.238Z,98222.84
2022-09-12T01:56:22.766Z,98215.31
2022-09-12T01:59:31.124Z,98207.25
2022-09-12T02:02:06.580Z,98211.41
2022-09-12T02:04:48.136Z,98202.06
2022-09-12T02:07:25.996Z,98195.28
2022-09-12T02:09:59.784Z,98194.22
2022-09-12T02:12:32.261Z,98192.94
2022-09-12T02:15:03.939Z,98188.53
2022-09-12T02:17:38.884Z,98179.72
2022-09-12T02:20:48.393Z,98173.59
2022-09-12T02:23:23.487Z,98168.22
2022-09-12T02:25:55.137Z,98158.28
2022-09-12T02:28:28.022Z,98150.38
2022-09-12T02:31:14.663Z,98155.34
2022-09-12T02:33:44.459Z,98139.00
2022-09-12T02:36:29.923Z,98132.38
2022-09-12T02:38:57.070Z,98133.84
2022-09-12T02:41:24.262Z,98140.84
2022-09-12T02:43:53.219Z,98139.81
2022-09-12T02:46:32.580Z,98138.34
2022-09-12T02:48:59.708Z,98136.19
2022-09-12T02:51:27.530Z,98137.44
2022-09-12T02:53:54.702Z,98127.19
2022-09-12T02:56:28.263Z,98132.56
2022-09-12T02:58:57.650Z,98133.50
2022-09-12T03:01:47.059Z,98125.97
2022-09-12T03:04:35.865Z,98120.59
2022-09-12T03:07:15.532Z,98128.13
2022-09-12T03:10:20.256Z,98130.28
2022-09-12T03:13:06.652Z,98122.22
2022-09-12T03:16:04.025Z,98118.81
2022-09-12T03:19:12.339Z,98115.63
2022-09-12T03:22:22.704Z,98117.03
2022-09-12T03:24:58.698Z,98116.84
2022-09-12T03:27:39.777Z,98108.78
2022-09-12T03:30:08.745Z,98109.28
2022-09-12T03:32:49.123Z,98116.13
2022-09-12T03:35:22.714Z,98115.63
2022-09-12T03:37:51.782Z,98110.94
2022-09-12T03:40:18.828Z,98117.56
2022-09-12T03:42:45.913Z,98119.53
2022-09-12T03:45:13.077Z,98125.63
2022-09-12T03:47:40.525Z,98129.78
2022-09-12T03:50:08.271Z,98128.84
2022-09-12T03:52:35.431Z,98126.69
2022-09-12T03:55:02.481Z,98123.78
2022-09-12T03:57:29.827Z,98118.72
2022-09-12T03:59:56.881Z,98123.75
2022-09-12T04:02:24.017Z,98123.50
2022-09-12T04:04:51.315Z,98124.03
2022-09-12T04:07:18.471Z,98119.38
2022-09-12T04:09:45.507Z,98120.81
2022-09-12T04:12:14.560Z,98113.47
2022-09-12T04:14:41.663Z,98111.53
2022-09-12T04:17:09.201Z,98108.28
2022-09-12T04:19:36.275Z,98115.69
2022-09-12T04:22:04.092Z,98112.97
2022-09-12T04:24:31.147Z,98116.59
2022-09-12T04:26:58.672Z,98108.19
2022-09-12T04:29:25.745Z,98112.31
2022-09-12T04:31:52.801Z,98115.00
2022-09-12T04:34:20.174Z,98109.63
2022-09-12T04:36:47.281Z,98111.06
2022-09-12T04:39:14.482Z,98109.84
2022-09-12T04:41:44.750Z,98109.09
2022-09-12T04:44:14.088Z,98110.31
2022-09-12T04:46:45.222Z,98107.63
2022-09-12T04:49:13.461Z,98110.88
2022-09-12T04:51:42.330Z,98107.97
2022-09-12T04:54:25.555Z,98104.91
2022-09-12T04:56:53.062Z,98111.53
2022-09-12T04:59:22.664Z,98112.25
2022-09-12T05:01:50.163Z,98106.66
2022-09-12T05:04:17.837Z,98111.53
2022-09-12T05:06:47.318Z,98117.63
2022-09-12T05:09:14.799Z,98111.53
2022-09-12T05:14:32.900Z,98113.28
2022-09-12T05:17:02.034Z,98103.25
2022-09-12T05:19:30.879Z,98099.28
2022-09-12T05:21:59.396Z,98094.47
2022-09-12T05:24:26.676Z,98099.13
2022-09-12T05:26:53.825Z,98097.50
2022-09-12T05:29:20.940Z,98099.75
2022-09-12T05:31:50.476Z,98102.22
2022-09-12T05:34:17.567Z,98097.69
2022-09-12T05:36:44.770Z,98105.91
2022-09-12T05:39:12.463Z,98099.41
2022-09-12T05:41:39.555Z,98094.53
2022-09-12T05:44:11.481Z,98100.63
2022-09-12T05:46:40.492Z,98087.19
2022-09-12T05:49:13.414Z,98101.56
2022-09-12T05:51:43.496Z,98103.75
2022-09-12T05:54:12.668Z,98107.66
2022-09-12T05:56:42.600Z,98114.50
2022-09-12T05:59:18.770Z,98112.22
2022-09-12T06:01:46.653Z,98107.75
2022-09-12T06:04:13.889Z,98107.22
2022-09-12T06:06:45.366Z,98109.91
2022-09-12T06:09:14.752Z,98116.75
2022-09-12T06:11:42.619Z,98108.66
2022-09-12T06:14:12.643Z,98114.56
2022-09-12T06:16:40.683Z,98122.13
2022-09-12T06:19:13.416Z,98126.25
2022-09-12T06:21:40.627Z,98121.03
2022-09-12T06:24:08.000Z,98122.13
2022-09-12T06:26:35.385Z,98127.50
2022-09-12T06:29:03.392Z,98128.53
2022-09-12T06:31:33.682Z,98123.16
2022-09-12T06:34:07.042Z,98117.78
2022-09-12T06:36:38.623Z,98119.03
2022-09-12T06:39:12.724Z,98128.53
2022-09-12T06:41:43.819Z,98137.84
2022-09-12T06:44:15.953Z,98143.34
2022-09-12T06:46:43.329Z,98139.53
2022-09-12T06:49:11.256Z,98142.00
2022-09-12T06:51:38.367Z,98137.16
2022-09-12T06:54:06.141Z,98145.91
2022-09-12T06:56:33.354Z,98154.19
2022-09-12T06:59:00.401Z,98147.06
2022-09-12T07:01:29.583Z,98152.13
2022-09-12T07:03:59.623Z,98155.00
2022-09-12T07:06:33.021Z,98163.28
2022-09-12T07:09:01.399Z,98171.66
2022-09-12T07:11:34.114Z,98172.91
2022-09-12T07:14:03.700Z,98167.81
2022-09-12T07:16:31.079Z,98165.97
2022-09-12T07:19:00.462Z,98169.91
2022-09-12T07:21:27.941Z,98178.91
2022-09-12T07:23:58.430Z,98180.34
2022-09-12T07:26:27.691Z,98188.53
2022-09-12T07:29:07.839Z,98201.03
2022-09-12T07:31:40.504Z,98199.06
2022-09-12T07:34:07.705Z,98204.66
2022-09-12T07:36:35.438Z,98202.72
2022-09-12T07:39:02.619Z,98205.41
2022-09-12T07:41:31.598Z,98208.56
2022-09-12T07:44:00.929Z,98215.19
2022-09-12T07:46:29.974Z,98215.19
2022-09-12T07:48:58.469Z,98217.56
2022-09-12T07:51:27.138Z,98217.50
2022-09-12T07:53:54.586Z,98219.13
2022-09-12T07:56:24.045Z,98228.31
2022-09-12T07:58:53.254Z,98230.91
2022-09-12T08:01:24.061Z,98233.28
2022-09-12T08:03:56.064Z,98236.88
2022-09-12T08:06:25.103Z,98228.22
2022-09-12T08:08:54.346Z,98221.25
2022-09-12T08:11:22.699Z,98219.72
2022-09-12T08:13:55.288Z,98226.56
2022-09-12T08:16:25.515Z,98217.97
2022-09-12T08:18:53.134Z,98211.88
2022-09-12T08:21:22.524Z,98216.44
2022-09-12T08:23:54.563Z,98222.03
2022-09-12T08:26:21.918Z,98224.09
2022-09-12T08:28:49.515Z,98233.41
2022-09-12T08:31:18.733Z,98227.41
2022-09-12T08:33:46.436Z,98232.13
2022-09-12T08:36:16.353Z,98232.03
2022-09-12T08:38:45.850Z,98231.22
2022-09-12T08:41:19.154Z,98238.72
2022-09-12T08:43:46.294Z,98242.06
2022-09-12T08:46:25.650Z,98234.59
2022-09-12T08:48:55.959Z,98239.34
2022-09-12T08:51:23.254Z,98248.81
2022-09-12T08:53:54.729Z,98257.56
2022-09-12T08:56:22.349Z,98257.06
2022-09-12T08:58:49.601Z,98257.56
2022-09-12T09:01:35.387Z,98259.63
2022-09-12T09:04:25.741Z,98258.59
2022-09-12T09:07:16.109Z,98266.44
2022-09-12T09:09:50.635Z,98271.38
2022-09-12T09:12:51.246Z,98271.78
2022-09-12T09:15:41.197Z,98278.34
2022-09-12T09:18:16.970Z,98278.84
2022-09-12T09:21:02.450Z,98290.22
2022-09-12T09:23:34.136Z,98288.78
2022-09-12T09:26:10.996Z,98284.00
2022-09-12T09:28:59.721Z,98298.06
2022-09-12T09:31:38.893Z,98302.41
2022-09-12T09:34:30.387Z,98303.91
2022-09-12T09:37:21.304Z,98309.22
2022-09-12T09:40:24.743Z,98306.50
2022-09-12T09:43:04.311Z,98312.94
2022-09-12T09:45:31.717Z,98322.03
2022-09-12T09:48:17.717Z,98330.78
2022-09-12T09:50:46.287Z,98331.06
2022-09-12T09:53:27.023Z,98339.66
2022-09-12T09:55:57.016Z,98342.56
2022-09-12T09:58:36.744Z,98345.88
2022-09-12T10:01:06.775Z,98346.25
2022-09-12T10:03:39.362Z,98353.69
2022-09-12T10:06:33.249Z,98352.94
2022-09-12T10:09:18.823Z,98363.19
2022-09-12T10:11:47.196Z,98363.56
2022-09-12T10:14:32.338Z,98360.50
2022-09-12T10:16:59.986Z,98354.97
2022-09-12T10:19:52.693Z,98359.31
2022-09-12T10:22:31.921Z,98362.00
2022-09-12T10:25:01.381Z,98347.06
2022-09-12T10:27:37.442Z,98341.47
2022-09-12T10:30:16.652Z,98344.09
2022-09-12T10:32:50.894Z,98346.38
2022-09-12T10:35:44.133Z,98345.38
2022-09-12T10:38:21.829Z,98344.09
2022-09-12T10:40:58.210Z,98340.81
2022-09-12T10:43:35.728Z,98337.16
2022-09-12T10:46:15.046Z,98335.72
2022-09-12T10:48:49.613Z,98325.88
2022-09-12T10:51:25.599Z,98336.66
2022-09-12T10:53:56.738Z,98331.69
2022-09-12T10:56:36.420Z,98324.00
2022-09-12T10:59:20.315Z,98326.47
2022-09-12T11:02:01.687Z,98321.69
2022-09-12T11:04:53.639Z,98320.41
2022-09-12T11:07:48.654Z,98327.38
2022-09-12T11:10:25.704Z,98332.03
2022-09-12T11:13:30.931Z,98328.28
2022-09-12T11:16:27.792Z,98321.91
2022-09-12T11:19:34.536Z,98326.09
2022-09-12T11:22:58.261Z,98320.75
2022-09-12T11:25:51.891Z,98329.41
2022-09-12T11:28:44.125Z,98336.28
2022-09-12T11:31:51.661Z,98329.09
2022-09-12T11:34:42.551Z,98333.47
2022-09-12T11:37:35.119Z,98331.41
2022-09-12T11:40:32.234Z,98324.28
2022-09-12T11:43:09.825Z,98324.69
2022-09-12T11:45:42.147Z,98324.91
2022-09-12T11:48:17.032Z,98312.00
2022-09-12T11:50:44.125Z,98317.03
2022-09-12T11:53:28.102Z,98302.63
2022-09-12T11:56:19.117Z,98303.72
2022-09-12T11:59:16.282Z,98299.19
2022-09-12T12:01:48.749Z,98289.84
2022-09-12T12:04:21.317Z,98288.38
2022-09-12T12:07:06.456Z,98292.72
2022-09-12T12:09:34.228Z,98292.00
2022-09-12T12:12:07.099Z,98290.91
2022-09-12T12:14:47.245Z,98297.22
2022-09-12T12:17:20.201Z,98299.03
2022-09-12T12:19:49.127Z,98298.50
2022-09-12T12:22:22.818Z,98295.25
2022-09-12T12:24:56.013Z,98295.59
2022-09-12T12:27:44.594Z,98292.19
2022-09-12T12:30:29.973Z,98301.91
2022-09-12T12:33:03.406Z,98297.75
2022-09-12T12:35:53.512Z,98298.66
2022-09-12T12:38:28.233Z,98309.28
2022-09-12T12:41:17.752Z,98302.81
2022-09-12T12:43:45.850Z,98297.03
2022-09-12T12:46:17.637Z,98297.75
2022-09-12T12:49:17.056Z,98306.06
2022-09-12T12:51:59.370Z,98302.06
2022-09-12T12:54:53.069Z,98304.59
2022-09-12T12:57:29.147Z,98295.88
2022-09-12T12:59:56.551Z,98301.97
2022-09-12T13:02:40.212Z,98288.63
2022-09-12T13:05:16.605Z,98290.75
2022-09-12T13:07:44.892Z,98293.25
2022-09-12T13:10:29.691Z,98292.34
2022-09-12T13:13:01.905Z,98287.31
2022-09-12T13:15:48.216Z,98284.88
2022-09-12T13:18:23.709Z,98279.34
2022-09-12T13:20:57.515Z,98273.63
2022-09-12T13:23:30.541Z,98262.97
2022-09-12T13:26:02.592Z,98262.44
2022-09-12T13:28:31.499Z,98269.50
2022-09-12T13:31:24.975Z,98261.34
2022-09-12T13:33:56.176Z,98260.94
2022-09-12T13:36:26.288Z,98254.81
2022-09-12T13:39:28.209Z,98255.50
2022-09-12T13:42:04.241Z,98247.00
2022-09-12T13:44:33.172Z,98245.69
2022-09-12T13:47:02.040Z,98249.78
2022-09-12T13:49:41.188Z,98253.53
2022-09-12T13:52:16.108Z,98246.25
2022-09-12T13:54:46.119Z,98240.44
2022-09-12T13:57:45.600Z,98252.63
2022-09-12T14:00:20.366Z,98241.66
2022-09-12T14:02:48.740Z,98234.47
2022-09-12T14:05:24.588Z,98236.84
2022-09-12T14:07:54.742Z,98222.47
2022-09-12T14:10:32.205Z,98228.97
2022-09-12T14:13:01.418Z,98218.75
2022-09-12T14:15:31.579Z,98224.34
2022-09-12T14:18:01.861Z,98223.09
2022-09-12T14:20:33.694Z,98219.31
2022-09-12T14:23:28.172Z,98223.44
2022-09-12T14:25:57.357Z,98225.41
2022-09-12T14:28:27.620Z,98224.16
2022-09-12T14:31:22.541Z,98229.47
2022-09-12T14:33:49.649Z,98218.97
2022-09-12T14:36:20.127Z,98214.88
2022-09-12T14:38:51.094Z,98222.66
2022-09-12T14:41:31.193Z,98221.38
2022-09-12T14:44:05.691Z,98219.19
2022-09-12T14:46:41.819Z,98215.88
2022-09-12T14:49:28.349Z,98214.94
2022-09-12T14:52:01.453Z,98216.19
2022-09-12T14:54:28.555Z,98214.56
2022-09-12T14:57:05.010Z,98210.84
2022-09-12T14:59:35.078Z,98206.41
2022-09-12T15:02:14.167Z,98215.50
2022-09-12T15:04:43.600Z,98215.22
2022-09-12T15:07:34.175Z,98216.69
2022-09-12T15:10:18.568Z,98209.19
2022-09-12T15:12:45.689Z,98205.56
2022-09-12T15:15:19.258Z,98206.63
2022-09-12T15:17:47.198Z,98201.53
2022-09-12T15:20:14.742Z,98204.75
2022-09-12T15:22:42.672Z,98207.47
2022-09-12T15:25:11.305Z,98203.84
2022-09-12T15:27:41.166Z,98209.63
2022-09-12T15:30:13.927Z,98208.59
2022-09-12T15:32:43.812Z,98210.59
2022-09-12T15:35:22.950Z,98203.03
2022-09-12T15:37:50.938Z,98197.63
2022-09-12T15:40:18.356Z,98199.22
2022-09-12T15:42:45.501Z,98198.84
2022-09-12T15:45:29.555Z,98203.91
2022-09-12T15:47:57.429Z,98198.72
2022-09-12T15:50:24.725Z,98197.63
2022-09-12T15:52:52.555Z,98199.97
2022-09-12T15:55:25.445Z,98195.47
2022-09-12T15:57:52.619Z,98197.28
2022-09-12T16:00:20.744Z,98199.03
2022-09-12T16:02:50.668Z,98203.97
2022-09-12T16:05:26.380Z,98194.31
2022-09-12T16:07:55.374Z,98187.75
2022-09-12T16:10:27.459Z,98191.50
2022-09-12T16:12:54.939Z,98199.41
2022-09-12T16:15:25.172Z,98192.78
2022-09-12T16:17:52.703Z,98189.25
2022-09-12T16:20:21.183Z,98191.97
2022-09-12T16:22:48.767Z,98191.13
2022-09-12T16:25:15.983Z,98189.34
2022-09-12T16:27:43.456Z,98188.78
2022-09-12T16:30:11.418Z,98184.38
2022-09-12T16:32:38.629Z,98184.59
2022-09-12T16:35:06.517Z,98188.91
2022-09-12T16:37:34.978Z,98187.28
2022-09-12T16:40:03.738Z,98189.97
2022-09-12T16:42:30.906Z,98188.69
2022-09-12T16:44:58.182Z,98196.41
2022-09-12T16:47:25.331Z,98194.06
2022-09-12T16:49:52.419Z,98187.56
2022-09-12T16:52:19.665Z,98190.09
2022-09-12T16:54:46.714Z,98192.84
2022-09-12T16:57:13.910Z,98187.09
2022-09-12T16:59:41.000Z,98190.25
2022-09-12T17:02:11.038Z,98187.56
2022-09-12T17:04:38.178Z,98190.25
2022-09-12T17:07:05.487Z,98184.06
2022-09-12T17:09:32.678Z,98194.09
2022-09-12T17:11:59.924Z,98194.97
2022-09-12T17:14:27.300Z,98193.09
2022-09-12T17:16:54.478Z,98188.94
2022-09-12T17:19:30.205Z,98195.97
2022-09-12T17:21:57.992Z,98196.53
2022-09-12T17:24:25.909Z,98193.72
2022-09-12T17:26:53.896Z,98193.72
2022-09-12T17:29:21.710Z,98198.38
2022-09-12T17:31:49.152Z,98200.34
2022-09-12T17:34:16.733Z,98198.69
2022-09-12T17:36:45.515Z,98201.59
2022-09-12T17:39:14.218Z,98202.00
2022-09-12T17:41:46.186Z,98203.81
2022-09-12T17:44:15.385Z,98204.72
2022-09-12T17:46:43.046Z,98202.75
2022-09-12T17:49:17.761Z,98201.84
2022-09-12T17:51:45.375Z,98199.88
2022-09-12T17:54:16.055Z,98201.19
2022-09-12T17:56:44.637Z,98203.00
2022-09-12T17:59:15.756Z,98205.03
2022-09-12T18:02:01.710Z,98200.75
2022-09-12T18:04:28.984Z,98194.31
2022-09-12T18:06:58.014Z,98202.19
2022-09-12T18:09:28.498Z,98206.84
2022-09-12T18:11:55.864Z,98211.41
2022-09-12T18:14:23.658Z,98213.78
2022-09-12T18:16:50.743Z,98216.38
2022-09-12T18:19:18.554Z,98221.03
2022-09-12T18:21:45.950Z,98221.75
2022-09-12T18:24:13.442Z,98217.53
2022-09-12T18:26:40.902Z,98222.34
2022-09-12T18:29:08.203Z,98225.28
2022-09-12T18:31:35.582Z,98228.47
2022-09-12T18:34:03.062Z,98230.28
2022-09-12T18:36:31.010Z,98231.91
2022-09-12T18:38:59.646Z,98231.09
2022-09-12T18:41:27.217Z,98233.47
2022-09-12T18:43:56.230Z,98232.38
2022-09-12T18:46:23.553Z,98238.50
2022-09-12T18:48:50.799Z,98236.34
2022-09-12T18:51:23.455Z,98232.75
2022-09-12T18:53:53.253Z,98234.31
2022-09-12T18:56:21.118Z,98223.63
2022-09-12T18:58:55.009Z,98234.75
2022-09-12T19:01:27.871Z,98235.41
2022-09-12T19:03:55.524Z,98227.81
2022-09-12T19:06:26.025Z,98221.31
2022-09-12T19:08:54.850Z,98228.72
2022-09-12T19:11:22.690Z,98224.06
2022-09-12T19:13:51.467Z,98229.56
2022-09-12T19:16:22.075Z,98227.59
2022-09-12T19:18:50.270Z,98230.09
2022-09-12T19:21:20.419Z,98232.38
2022-09-12T19:23:47.569Z,98235.31
2022-09-12T19:26:16.673Z,98240.22
2022-09-12T19:28:45.830Z,98250.06
2022-09-12T19:31:15.548Z,98248.00
2022-09-12T19:33:42.942Z,98258.38
2022-09-12T19:36:34.039Z,98250.09
2022-09-12T19:39:00.703Z,98259.81
2022-09-12T19:41:28.007Z,98265.50
2022-09-12T19:43:58.040Z,98267.59
2022-09-12T19:46:26.347Z,98271.00
2022-09-12T19:48:53.761Z,98273.19
2022-09-12T19:51:22.735Z,98280.34
2022-09-12T19:53:50.565Z,98279.91
2022-09-12T19:56:21.086Z,98277.72
2022-09-12T19:58:55.149Z,98273.81
2022-09-12T20:01:28.906Z,98279.09
2022-09-12T20:03:57.689Z,98278.78
2022-09-12T20:06:25.867Z,98283.41
2022-09-12T20:08:52.997Z,98285.69
2022-09-12T20:11:22.381Z,98289.00
2022-09-12T20:13:49.825Z,98287.44
2022-09-12T20:16:29.950Z,98300.59
2022-09-12T20:19:00.296Z,98301.00
2022-09-12T20:21:34.449Z,98302.03
2022-09-12T20:24:12.995Z,98309.81
2022-09-12T20:26:40.735Z,98313.22
2022-09-12T20:29:08.713Z,98309.06
2022-09-12T20:31:37.172Z,98315.28
2022-09-12T20:34:05.427Z,98313.44
2022-09-12T20:36:33.107Z,98329.13
2022-09-12T20:39:02.748Z,98329.53
2022-09-12T20:41:33.487Z,98323.81
2022-09-12T20:44:00.537Z,98331.78
2022-09-12T20:46:28.969Z,98322.66
2022-09-12T20:48:56.602Z,98323.41
2022-09-12T20:51:26.896Z,98326.22
2022-09-12T20:53:55.050Z,98325.16
2022-09-12T20:56:23.192Z,98327.44
2022-09-12T20:58:51.232Z,98332.53
2022-09-12T21:01:18.566Z,98328.69
2022-09-12T21:03:46.389Z,98327.47
2022-09-12T21:06:17.244Z,98324.19
2022-09-12T21:08:45.851Z,98308.06
2022-09-12T21:11:13.902Z,98321.28
2022-09-12T21:13:41.456Z,98321.28
2022-09-12T21:16:13.208Z,98323.03
2022-09-12T21:18:41.523Z,98324.34
2022-09-12T21:21:10.887Z,98334.81
2022-09-12T21:23:38.715Z,98328.41
2022-09-12T21:26:06.077Z,98338.75
2022-09-12T21:28:33.266Z,98338.00
2022-09-12T21:31:00.865Z,98339.44
2022-09-12T21:33:28.521Z,98345.25
2022-09-12T21:35:55.590Z,98341.03
2022-09-12T21:38:22.845Z,98341.94
2022-09-12T21:40:49.964Z,98344.84
2022-09-12T21:43:17.032Z,98350.88
2022-09-12T21:45:44.373Z,98352.50
2022-09-12T21:48:11.479Z,98347.56
2022-09-12T21:50:38.646Z,98354.59
2022-09-12T21:53:05.809Z,98355.31
2022-09-12T21:55:33.485Z,98359.25
2022-09-12T21:58:00.500Z,98348.19
2022-09-12T22:00:27.605Z,98350.31
2022-09-12T22:02:54.694Z,98359.13
2022-09-12T22:05:21.991Z,98350.03
2022-09-12T22:07:49.045Z,98353.25
2022-09-12T22:10:16.264Z,98360.41
2022-09-12T22:12:46.074Z,98368.97
2022-09-12T22:15:38.867Z,98366.06
2022-09-12T22:18:01.605Z,98369.16
2022-09-12T22:20:28.974Z,98364.19
2022-09-12T22:23:14.520Z,98364.94
2022-09-12T22:25:41.612Z,98370.31
2022-09-12T22:28:09.023Z,98362.75
2022-09-12T22:30:36.302Z,98370.19
2022-09-12T22:33:03.406Z,98361.91
2022-09-12T22:35:30.542Z,98360.75
2022-09-12T22:37:57.671Z,98360.75
2022-09-12T22:40:24.794Z,98360.34
2022-09-12T22:42:53.303Z,98360.34
2022-09-12T22:45:20.340Z,98358.91
2022-09-12T22:47:47.589Z,98358.91
2022-09-12T22:50:14.917Z,98349.91
2022-09-12T22:52:42.966Z,98359.09
2022-09-12T22:55:10.735Z,98355.47
2022-09-12T22:57:38.164Z,98356.22
2022-09-12T23:00:10.950Z,98360.16
2022-09-12T23:02:38.556Z,98360.84
2022-09-12T23:05:06.493Z,98360.84
2022-09-12T23:07:33.905Z,98357.75
2022-09-12T23:10:01.581Z,98353.28
2022-09-12T23:12:28.615Z,98353.53
2022-09-12T23:14:55.722Z,98352.97
2022-09-12T23:17:22.766Z,98352.50
2022-09-12T23:19:49.790Z,98351.44
2022-09-12T23:22:16.890Z,98351.22
2022-09-12T23:24:44.078Z,98349.81
2022-09-12T23:27:11.147Z,98350.84
2022-09-12T23:29:38.361Z,98351.81
2022-09-12T23:32:05.664Z,98347.91
2022-09-12T23:34:34.234Z,98343.47
2022-09-12T23:37:01.287Z,98344.44
2022-09-12T23:39:28.415Z,98347.84
2022-09-12T23:41:55.922Z,98347.31
2022-09-12T23:44:23.019Z,98348.47
2022-09-12T23:46:50.161Z,98359.22
2022-09-12T23:49:17.216Z,98351.16
2022-09-12T23:51:45.106Z,98357.16
2022-09-12T23:54:12.288Z,98352.22
2022-09-12T23:56:39.372Z,98351.16
2022-09-12T23:59:06.507Z,98354.59
